createdAt,value
2018-11-10T00:00:37.747Z,16.63
2018-11-10T00:03:05.855Z,16.90
2018-11-10T00:05:33.721Z,16.73
2018-11-10T00:08:01.437Z,16.13
2018-11-10T00:10:34.170Z,16.67
2018-11-10T00:13:01.754Z,16.20
2018-11-10T00:15:29.374Z,17.60
2018-11-10T00:17:57.050Z,16.20
2018-11-10T00:20:24.718Z,18.60
2018-11-10T00:22:52.324Z,17.33
2018-11-10T00:25:19.950Z,17.03
2018-11-10T00:27:47.642Z,17.33
2018-11-10T00:30:16.672Z,17.30
2018-11-10T00:32:45.053Z,15.77
2018-11-10T00:35:13.023Z,16.97
2018-11-10T00:37:40.769Z,17.37
2018-11-10T00:40:10.338Z,17.50
2018-11-10T00:42:38.038Z,17.17
2018-11-10T00:45:06.468Z,16.73
2018-11-10T00:47:34.156Z,16.50
2018-11-10T00:50:01.776Z,17.17
2018-11-10T00:52:29.407Z,16.53
2018-11-10T00:54:56.998Z,17.23
2018-11-10T00:57:24.930Z,18.73
2018-11-10T00:59:52.606Z,16.50
2018-11-10T01:02:20.179Z,17.37
2018-11-10T01:04:47.754Z,17.00
2018-11-10T01:07:15.302Z,17.30
2018-11-10T01:09:42.894Z,17.50
2018-11-10T01:12:10.494Z,17.53
2018-11-10T01:14:38.227Z,17.00
2018-11-10T01:17:06.042Z,16.77
2018-11-10T01:19:33.709Z,16.87
2018-11-10T01:22:01.271Z,16.30
2018-11-10T01:24:29.010Z,16.67
2018-11-10T01:26:56.581Z,16.97
2018-11-10T01:29:24.146Z,17.07
2018-11-10T01:31:51.719Z,17.73
2018-11-10T01:34:19.456Z,16.87
2018-11-10T01:36:47.086Z,17.60
2018-11-10T01:39:14.686Z,17.13
2018-11-10T01:41:42.298Z,17.20
2018-11-10T01:44:09.962Z,17.60
2018-11-10T01:46:37.570Z,17.67
2018-11-10T01:49:05.334Z,17.57
2018-11-10T01:51:33.270Z,16.90
2018-11-10T01:54:01.332Z,17.57
2018-11-10T01:56:29.102Z,17.13
2018-11-10T01:58:57.030Z,16.83
2018-11-10T02:01:24.651Z,16.53
2018-11-10T02:03:52.297Z,16.83
2018-11-10T02:06:19.904Z,16.07
2018-11-10T02:08:47.442Z,16.83
2018-11-10T02:11:15.017Z,16.73
2018-11-10T02:13:42.670Z,17.50
2018-11-10T02:16:10.291Z,16.70
2018-11-10T02:18:38.254Z,17.13
2018-11-10T02:21:05.876Z,17.23
2018-11-10T02:23:33.586Z,18.17
2018-11-10T02:26:01.778Z,17.33
2018-11-10T02:28:29.355Z,16.77
2018-11-10T02:30:56.994Z,16.10
2018-11-10T02:33:24.568Z,16.67
2018-11-10T02:35:52.135Z,16.47
2018-11-10T02:38:19.916Z,16.57
2018-11-10T02:40:47.538Z,16.87
2018-11-10T02:43:15.197Z,16.70
2018-11-10T02:45:42.884Z,17.30
2018-11-10T02:48:10.434Z,16.63
2018-11-10T02:50:38.138Z,16.33
2018-11-10T02:53:05.787Z,16.87
2018-11-10T02:55:33.383Z,16.20
2018-11-10T02:58:00.923Z,17.00
2018-11-10T03:00:28.522Z,16.47
2018-11-10T03:02:56.125Z,16.17
2018-11-10T03:05:23.724Z,16.70
2018-11-10T03:07:51.345Z,15.67
2018-11-10T03:10:18.954Z,16.67
2018-11-10T03:12:46.526Z,16.47
2018-11-10T03:15:14.122Z,16.20
2018-11-10T03:17:41.693Z,17.27
2018-11-10T03:20:11.366Z,16.87
2018-11-10T03:22:38.907Z,16.67
2018-11-10T03:25:06.623Z,16.30
2018-11-10T03:27:34.199Z,17.40
2018-11-10T03:30:01.950Z,17.20
2018-11-10T03:32:29.563Z,16.03
2018-11-10T03:34:57.118Z,16.37
2018-11-10T03:37:24.774Z,17.23
2018-11-10T03:39:52.539Z,16.67
2018-11-10T03:42:20.101Z,16.57
2018-11-10T03:44:47.631Z,15.67
2018-11-10T03:47:15.176Z,15.77
2018-11-10T03:49:42.802Z,16.53
2018-11-10T03:52:10.403Z,16.73
2018-11-10T03:54:38.142Z,16.80
2018-11-10T03:57:05.697Z,15.23
2018-11-10T03:59:33.460Z,16.80
2018-11-10T04:02:01.044Z,15.23
2018-11-10T04:04:28.591Z,16.07
2018-11-10T04:06:56.207Z,15.87
2018-11-10T04:09:23.769Z,15.67
2018-11-10T04:11:52.018Z,15.83
2018-11-10T04:14:19.602Z,14.57
2018-11-10T04:16:47.178Z,14.90
2018-11-10T04:19:14.744Z,15.53
2018-11-10T04:21:42.466Z,16.03
2018-11-10T04:24:10.138Z,15.17
2018-11-10T04:26:37.699Z,16.53
2018-11-10T04:29:05.346Z,15.83
2018-11-10T04:31:33.066Z,15.00
2018-11-10T04:34:00.679Z,15.27
2018-11-10T04:36:28.226Z,15.03
2018-11-10T04:38:55.895Z,15.70
2018-11-10T04:41:23.610Z,14.70
2018-11-10T04:43:51.189Z,16.10
2018-11-10T04:46:18.815Z,15.47
2018-11-10T04:48:46.365Z,15.50
2018-11-10T04:51:13.962Z,14.63
2018-11-10T04:53:41.592Z,15.40
2018-11-10T04:56:09.156Z,15.53
2018-11-10T04:58:36.847Z,15.10
2018-11-10T05:01:04.923Z,13.90
2018-11-10T05:03:32.511Z,14.67
2018-11-10T05:06:00.098Z,14.50
2018-11-10T05:08:27.630Z,14.13
2018-11-10T05:10:55.186Z,13.53
2018-11-10T05:13:22.725Z,13.07
2018-11-10T05:15:50.349Z,12.07
2018-11-10T05:18:18.143Z,12.37
2018-11-10T05:20:45.746Z,12.93
2018-11-10T05:23:13.338Z,12.90
2018-11-10T05:25:40.902Z,12.80
2018-11-10T05:28:08.541Z,13.77
2018-11-10T05:30:36.099Z,12.57
2018-11-10T05:33:06.189Z,13.40
2018-11-10T05:35:33.861Z,14.00
2018-11-10T05:38:01.604Z,13.20
2018-11-10T05:40:29.172Z,13.20
2018-11-10T05:42:56.729Z,13.37
2018-11-10T05:45:24.432Z,13.63
2018-11-10T05:47:51.982Z,13.10
2018-11-10T05:50:19.543Z,13.77
2018-11-10T05:52:47.274Z,13.43
2018-11-10T05:55:14.825Z,13.87
2018-11-10T05:57:42.518Z,13.00
2018-11-10T06:00:11.538Z,13.40
2018-11-10T06:02:39.179Z,13.10
2018-11-10T06:05:06.944Z,12.90
2018-11-10T06:07:34.503Z,13.77
2018-11-10T06:10:02.298Z,12.73
2018-11-10T06:12:29.629Z,12.80
2018-11-10T06:14:57.191Z,13.67
2018-11-10T06:17:24.742Z,12.40
2018-11-10T06:19:52.395Z,12.10
2018-11-10T06:22:20.131Z,11.97
2018-11-10T06:24:47.894Z,12.47
2018-11-10T06:27:15.449Z,12.40
2018-11-10T06:29:43.021Z,11.87
2018-11-10T06:32:10.614Z,11.77
2018-11-10T06:34:38.423Z,11.77
2018-11-10T06:37:06.123Z,11.37
2018-11-10T06:39:33.709Z,12.17
2018-11-10T06:42:01.278Z,12.17
2018-11-10T06:44:28.930Z,11.97
2018-11-10T06:46:56.539Z,11.33
2018-11-10T06:49:24.143Z,12.00
2018-11-10T06:51:51.791Z,12.07
2018-11-10T06:54:19.487Z,12.10
2018-11-10T06:56:47.110Z,11.90
2018-11-10T06:59:14.784Z,11.60
2018-11-10T07:01:42.352Z,12.80
2018-11-10T07:04:09.970Z,13.70
2018-11-10T07:06:37.630Z,12.33
2018-11-10T07:09:08.621Z,11.30
2018-11-10T07:11:36.272Z,11.90
2018-11-10T07:14:03.918Z,11.83
2018-11-10T07:16:31.594Z,11.37
2018-11-10T07:18:59.474Z,11.60
2018-11-10T07:21:27.214Z,11.07
2018-11-10T07:23:54.849Z,11.03
2018-11-10T07:26:22.499Z,11.93
2018-11-10T07:28:50.590Z,11.70
2018-11-10T07:31:18.197Z,11.23
2018-11-10T07:33:46.003Z,10.83
2018-11-10T07:36:13.806Z,11.40
2018-11-10T07:38:41.404Z,10.27
2018-11-10T07:41:09.025Z,10.50
2018-11-10T07:43:36.680Z,10.70
2018-11-10T07:46:04.390Z,10.80
2018-11-10T07:48:32.112Z,10.70
2018-11-10T07:50:59.713Z,10.63
2018-11-10T07:53:27.343Z,9.80
2018-11-10T07:55:54.989Z,10.47
2018-11-10T07:58:22.678Z,9.93
2018-11-10T08:00:50.312Z,10.40
2018-11-10T08:03:18.040Z,10.57
2018-11-10T08:05:45.607Z,10.90
2018-11-10T08:08:13.183Z,12.03
2018-11-10T08:10:40.766Z,10.47
2018-11-10T08:13:08.403Z,10.97
2018-11-10T08:15:36.011Z,10.67
2018-11-10T08:18:03.635Z,11.20
2018-11-10T08:20:31.242Z,12.03
2018-11-10T08:22:58.830Z,12.07
2018-11-10T08:25:26.406Z,11.43
2018-11-10T08:27:54.118Z,12.37
2018-11-10T08:30:21.795Z,11.83
2018-11-10T08:32:49.518Z,11.73
2018-11-10T08:35:17.166Z,12.70
2018-11-10T08:37:44.785Z,11.80
2018-11-10T08:40:13.778Z,12.73
2018-11-10T08:42:41.431Z,11.67
2018-11-10T08:45:10.406Z,12.43
2018-11-10T08:47:38.168Z,12.30
2018-11-10T08:50:06.782Z,12.13
2018-11-10T08:52:34.607Z,13.53
2018-11-10T08:55:02.270Z,12.60
2018-11-10T08:57:29.897Z,12.37
2018-11-10T08:59:57.750Z,13.87
2018-11-10T09:02:25.337Z,12.40
2018-11-10T09:04:52.929Z,12.67
2018-11-10T09:07:20.595Z,12.60
2018-11-10T09:09:48.231Z,12.13
2018-11-10T09:12:15.840Z,13.47
2018-11-10T09:14:43.430Z,12.67
2018-11-10T09:17:11.034Z,12.23
2018-11-10T09:19:38.645Z,12.27
2018-11-10T09:22:06.742Z,13.87
2018-11-10T09:24:34.595Z,14.27
2018-11-10T09:27:02.359Z,13.17
2018-11-10T09:29:29.998Z,12.07
2018-11-10T09:31:57.582Z,12.30
2018-11-10T09:34:25.187Z,12.03
2018-11-10T09:36:52.801Z,11.77
2018-11-10T09:39:20.384Z,13.50
2018-11-10T09:41:47.948Z,12.40
2018-11-10T09:44:15.512Z,11.53
2018-11-10T09:46:43.114Z,11.50
2018-11-10T09:49:10.798Z,11.67
2018-11-10T09:51:39.666Z,12.33
2018-11-10T09:54:07.671Z,11.37
2018-11-10T09:56:35.506Z,10.50
2018-11-10T09:59:03.210Z,10.37
2018-11-10T10:01:31.055Z,10.47
2018-11-10T10:03:58.979Z,10.03
2018-11-10T10:06:26.674Z,9.60
2018-11-10T10:08:54.712Z,9.93
2018-11-10T10:11:22.275Z,10.20
2018-11-10T10:13:49.945Z,9.83
2018-11-10T10:16:18.705Z,9.70
2018-11-10T10:18:46.361Z,9.27
2018-11-10T10:21:14.029Z,9.97
2018-11-10T10:23:41.614Z,9.37
2018-11-10T10:26:09.375Z,9.47
2018-11-10T10:28:37.060Z,9.43
2018-11-10T10:31:05.609Z,9.30
2018-11-10T10:33:33.180Z,9.10
2018-11-10T10:36:00.753Z,8.70
2018-11-10T10:38:28.350Z,8.40
2018-11-10T10:40:55.963Z,7.83
2018-11-10T10:43:23.522Z,7.73
2018-11-10T10:45:51.105Z,8.27
2018-11-10T10:48:18.675Z,8.40
2018-11-10T10:50:46.553Z,8.60
2018-11-10T10:53:14.154Z,7.40
2018-11-10T10:55:41.744Z,7.90
2018-11-10T10:58:09.546Z,8.17
2018-11-10T11:00:42.950Z,7.73
2018-11-10T11:03:16.540Z,7.50
2018-11-10T11:05:48.663Z,7.10
2018-11-10T11:08:16.346Z,7.57
2018-11-10T11:10:44.008Z,7.70
2018-11-10T11:13:11.580Z,7.73
2018-11-10T11:15:39.248Z,8.03
2018-11-10T11:18:06.843Z,7.43
2018-11-10T11:20:34.507Z,7.77
2018-11-10T11:23:02.183Z,7.87
2018-11-10T11:25:29.803Z,7.73
2018-11-10T11:27:57.442Z,6.80
2018-11-10T11:30:25.173Z,7.20
2018-11-10T11:32:52.867Z,7.03
2018-11-10T11:35:20.568Z,6.73
2018-11-10T11:37:48.153Z,6.90
2018-11-10T11:40:15.815Z,6.50
2018-11-10T11:42:43.703Z,6.83
2018-11-10T11:45:12.118Z,8.97
2018-11-10T11:47:40.314Z,6.33
2018-11-10T11:50:09.475Z,6.60
2018-11-10T11:52:37.388Z,6.40
2018-11-10T11:55:05.359Z,5.90
2018-11-10T11:57:32.936Z,5.87
2018-11-10T12:00:00.704Z,6.13
2018-11-10T12:02:28.326Z,6.03
2018-11-10T12:04:55.919Z,5.57
2018-11-10T12:07:23.550Z,5.70
2018-11-10T12:09:51.216Z,5.63
2018-11-10T12:12:19.067Z,5.50
2018-11-10T12:14:46.677Z,5.67
2018-11-10T12:17:14.278Z,5.70
2018-11-10T12:19:41.889Z,5.33
2018-11-10T12:22:09.592Z,5.10
2018-11-10T12:24:37.133Z,4.87
2018-11-10T12:27:04.914Z,4.83
2018-11-10T12:29:32.877Z,4.70
2018-11-10T12:32:00.547Z,4.67
2018-11-10T12:34:28.090Z,4.57
2018-11-10T12:36:55.654Z,5.53
2018-11-10T12:39:23.194Z,4.20
2018-11-10T12:41:50.894Z,5.07
2018-11-10T12:44:18.499Z,4.97
2018-11-10T12:46:46.203Z,5.30
2018-11-10T12:49:14.097Z,4.43
2018-11-10T12:51:41.663Z,5.17
2018-11-10T12:54:09.378Z,4.07
2018-11-10T12:56:37.006Z,5.33
2018-11-10T12:59:04.688Z,4.20
2018-11-10T13:01:32.334Z,4.60
2018-11-10T13:03:59.975Z,5.00
2018-11-10T13:06:27.567Z,5.23
2018-11-10T13:08:55.157Z,5.37
2018-11-10T13:14:14.048Z,5.57
2018-11-10T13:16:48.266Z,5.60
2018-11-10T13:19:15.858Z,5.90
2018-11-10T13:21:48.327Z,6.57
2018-11-10T13:24:16.106Z,6.00
2018-11-10T13:26:43.698Z,6.13
2018-11-10T13:29:11.249Z,6.33
2018-11-10T13:31:38.964Z,6.80
2018-11-10T13:34:06.570Z,6.57
2018-11-10T13:36:34.161Z,6.40
2018-11-10T13:39:01.841Z,5.60
2018-11-10T13:41:29.558Z,6.53
2018-11-10T13:43:57.323Z,7.23
2018-11-10T13:46:25.000Z,6.00
2018-11-10T13:48:52.685Z,7.00
2018-11-10T13:51:20.348Z,5.70
2018-11-10T13:53:48.828Z,6.33
2018-11-10T13:56:16.687Z,5.40
2018-11-10T13:58:48.106Z,6.27
2018-11-10T14:04:12.254Z,5.17
2018-11-10T14:06:48.460Z,5.23
2018-11-10T14:09:16.062Z,5.03
2018-11-10T14:11:48.498Z,5.73
2018-11-10T14:14:16.122Z,6.13
2018-11-10T14:16:43.716Z,5.60
2018-11-10T14:19:11.279Z,6.10
2018-11-10T14:21:38.850Z,4.67
2018-11-10T14:24:06.554Z,5.77
2018-11-10T14:26:34.185Z,5.67
2018-11-10T14:29:01.836Z,6.07
2018-11-10T14:31:29.487Z,4.10
2018-11-10T14:33:57.882Z,4.50
2018-11-10T14:36:25.471Z,4.90
2018-11-10T14:38:53.150Z,5.50
2018-11-10T14:41:20.754Z,5.20
2018-11-10T14:43:48.383Z,4.57
2018-11-10T14:46:16.082Z,4.33
2018-11-10T14:48:43.740Z,5.97
2018-11-10T14:51:11.484Z,5.80
2018-11-10T14:53:39.035Z,5.60
2018-11-10T14:56:06.633Z,5.60
2018-11-10T14:58:34.258Z,5.77
2018-11-10T15:01:01.808Z,6.63
2018-11-10T15:03:29.375Z,6.60
2018-11-10T15:05:56.972Z,8.77
2018-11-10T15:08:24.576Z,5.77
2018-11-10T15:10:52.166Z,6.00
2018-11-10T15:13:19.784Z,6.83
2018-11-10T15:15:47.403Z,6.20
2018-11-10T15:18:15.110Z,6.03
2018-11-10T15:20:42.585Z,5.67
2018-11-10T15:23:10.223Z,10.80
2018-11-10T15:25:37.786Z,5.17
2018-11-10T15:28:05.444Z,6.23
2018-11-10T15:30:33.002Z,6.00
2018-11-10T15:33:00.603Z,5.80
2018-11-10T15:35:28.187Z,6.00
2018-11-10T15:37:55.900Z,4.17
2018-11-10T15:40:23.495Z,7.83
2018-11-10T15:42:58.806Z,12.17
2018-11-10T15:45:27.331Z,6.80
2018-11-10T15:47:54.959Z,5.87
2018-11-10T15:50:22.650Z,7.23
2018-11-10T15:52:50.250Z,9.57
2018-11-10T15:55:17.868Z,8.70
2018-11-10T15:57:45.461Z,10.27
2018-11-10T16:00:17.025Z,6.53
2018-11-10T16:02:44.739Z,6.27
2018-11-10T16:05:12.870Z,4.57
2018-11-10T16:07:40.502Z,5.67
2018-11-10T16:10:08.201Z,6.40
2018-11-10T16:12:35.998Z,6.00
2018-11-10T16:15:04.345Z,5.20
2018-11-10T16:17:31.969Z,5.03
2018-11-10T16:19:59.567Z,5.53
2018-11-10T16:22:27.142Z,5.93
2018-11-10T16:24:54.722Z,5.00
2018-11-10T16:27:22.330Z,4.90
2018-11-10T16:29:49.923Z,6.03
2018-11-10T16:32:17.506Z,5.07
2018-11-10T16:34:45.085Z,4.97
2018-11-10T16:37:12.835Z,8.10
2018-11-10T16:39:40.322Z,6.60
2018-11-10T16:42:08.015Z,4.87
2018-11-10T16:44:35.674Z,5.87
2018-11-10T16:47:03.296Z,5.90
2018-11-10T16:49:31.034Z,6.07
2018-11-10T16:51:58.722Z,5.80
2018-11-10T16:54:26.302Z,7.00
2018-11-10T16:56:53.930Z,7.20
2018-11-10T16:59:21.534Z,7.33
2018-11-10T17:01:49.163Z,4.90
2018-11-10T17:04:16.746Z,5.93
2018-11-10T17:06:44.323Z,6.33
2018-11-10T17:09:12.810Z,7.47
2018-11-10T17:11:40.406Z,8.23
2018-11-10T17:14:09.311Z,7.97
2018-11-10T17:16:37.125Z,6.77
2018-11-10T17:19:05.361Z,5.80
2018-11-10T17:21:33.104Z,8.40
2018-11-10T17:24:00.706Z,8.17
2018-11-10T17:26:28.354Z,6.77
2018-11-10T17:28:55.966Z,5.93
2018-11-10T17:31:23.831Z,6.17
2018-11-10T17:33:51.396Z,5.83
2018-11-10T17:36:19.026Z,8.70
2018-11-10T17:38:46.701Z,6.90
2018-11-10T17:41:14.267Z,7.50
2018-11-10T17:43:41.936Z,7.70
2018-11-10T17:46:09.566Z,5.97
2018-11-10T17:48:37.185Z,7.73
2018-11-10T17:51:04.883Z,5.80
2018-11-10T17:53:32.532Z,8.27
2018-11-10T17:56:00.097Z,8.27
2018-11-10T17:58:27.705Z,9.30
2018-11-10T18:00:55.307Z,9.90
2018-11-10T18:03:22.966Z,8.33
2018-11-10T18:05:51.483Z,9.67
2018-11-10T18:08:19.085Z,7.50
2018-11-10T18:10:46.740Z,8.57
2018-11-10T18:13:14.357Z,10.00
2018-11-10T18:15:41.992Z,10.07
2018-11-10T18:18:09.602Z,10.57
2018-11-10T18:20:37.219Z,10.00
2018-11-10T18:23:04.884Z,10.33
2018-11-10T18:25:32.537Z,10.40
2018-11-10T18:28:00.110Z,11.53
2018-11-10T18:30:27.731Z,10.73
2018-11-10T18:32:55.318Z,11.47
2018-11-10T18:35:22.991Z,11.03
2018-11-10T18:37:50.656Z,11.30
2018-11-10T18:40:18.558Z,9.80
2018-11-10T18:42:46.176Z,6.37
2018-11-10T18:45:13.770Z,9.33
2018-11-10T18:47:41.771Z,10.00
2018-11-10T18:50:11.371Z,9.40
2018-11-10T18:52:39.102Z,8.53
2018-11-10T18:55:06.857Z,8.43
2018-11-10T18:57:34.529Z,7.50
2018-11-10T19:00:02.192Z,10.67
2018-11-10T19:02:29.928Z,10.17
2018-11-10T19:04:57.545Z,7.37
2018-11-10T19:07:25.185Z,6.57
2018-11-10T19:09:52.863Z,9.90
2018-11-10T19:12:20.490Z,11.50
2018-11-10T19:14:48.160Z,11.50
2018-11-10T19:17:15.803Z,11.60
2018-11-10T19:19:43.386Z,10.87
2018-11-10T19:22:11.154Z,12.53
2018-11-10T19:24:38.786Z,11.40
2018-11-10T19:27:06.441Z,8.90
2018-11-10T19:29:34.180Z,9.93
2018-11-10T19:32:01.953Z,9.80
2018-11-10T19:34:29.509Z,15.20
2018-11-10T19:36:57.199Z,12.20
2018-11-10T19:39:24.874Z,10.27
2018-11-10T19:41:52.559Z,11.77
2018-11-10T19:44:20.281Z,7.33
2018-11-10T19:46:47.882Z,9.77
2018-11-10T19:49:15.440Z,9.83
2018-11-10T19:51:43.323Z,9.30
2018-11-10T19:54:10.812Z,10.80
2018-11-10T19:56:38.469Z,10.33
2018-11-10T19:59:06.146Z,11.57
2018-11-10T20:01:33.847Z,9.20
2018-11-10T20:04:01.510Z,9.80
2018-11-10T20:06:29.249Z,10.30
2018-11-10T20:08:56.926Z,11.70
2018-11-10T20:11:24.567Z,12.30
2018-11-10T20:13:52.247Z,11.57
2018-11-10T20:16:19.835Z,10.93
2018-11-10T20:18:47.466Z,12.63
2018-11-10T20:21:15.055Z,12.97
2018-11-10T20:23:42.778Z,11.10
2018-11-10T20:26:10.366Z,10.27
2018-11-10T20:28:37.955Z,9.70
2018-11-10T20:31:05.579Z,8.60
2018-11-10T20:33:33.292Z,9.97
2018-11-10T20:36:00.859Z,10.50
2018-11-10T20:38:28.518Z,11.90
2018-11-10T20:40:56.173Z,12.80
2018-11-10T20:43:23.779Z,11.43
2018-11-10T20:45:51.358Z,11.83
2018-11-10T20:48:18.922Z,11.60
2018-11-10T20:50:46.509Z,11.47
2018-11-10T20:53:14.104Z,12.33
2018-11-10T20:55:41.739Z,11.37
2018-11-10T20:58:09.414Z,11.20
2018-11-10T21:00:37.116Z,11.90
2018-11-10T21:03:04.704Z,11.97
2018-11-10T21:05:32.359Z,12.33
2018-11-10T21:07:59.979Z,11.87
2018-11-10T21:10:27.551Z,11.73
2018-11-10T21:12:55.280Z,12.27
2018-11-10T21:15:22.767Z,12.20
2018-11-10T21:17:50.357Z,13.00
2018-11-10T21:20:17.972Z,12.10
2018-11-10T21:22:45.574Z,12.30
2018-11-10T21:25:14.688Z,12.40
2018-11-10T21:27:42.624Z,11.90
2018-11-10T21:30:11.760Z,11.97
2018-11-10T21:32:39.339Z,12.17
2018-11-10T21:35:07.736Z,12.07
2018-11-10T21:37:35.587Z,13.20
2018-11-10T21:40:03.761Z,12.57
2018-11-10T21:42:31.444Z,12.13
2018-11-10T21:44:59.075Z,11.53
2018-11-10T21:47:26.638Z,12.33
2018-11-10T21:49:54.350Z,11.83
2018-11-10T21:52:21.895Z,12.23
2018-11-10T21:54:49.541Z,12.13
2018-11-10T21:57:17.186Z,12.70
2018-11-10T21:59:44.814Z,11.87
2018-11-10T22:02:12.442Z,12.07
2018-11-10T22:04:40.199Z,11.83
2018-11-10T22:07:07.783Z,11.77
2018-11-10T22:09:35.477Z,11.37
2018-11-10T22:12:03.016Z,13.47
2018-11-10T22:14:30.692Z,11.80
2018-11-10T22:16:58.358Z,12.43
2018-11-10T22:19:25.978Z,12.10
2018-11-10T22:21:53.687Z,12.03
2018-11-10T22:24:21.498Z,11.50
2018-11-10T22:26:49.133Z,11.60
2018-11-10T22:29:16.769Z,12.13
2018-11-10T22:31:44.413Z,12.00
2018-11-10T22:34:12.054Z,12.13
2018-11-10T22:36:39.680Z,11.60
2018-11-10T22:39:08.368Z,12.10
2018-11-10T22:41:35.990Z,11.27
2018-11-10T22:44:03.681Z,11.53
2018-11-10T22:46:31.322Z,10.30
2018-11-10T22:48:58.939Z,11.37
2018-11-10T22:51:26.655Z,12.33
2018-11-10T22:53:54.255Z,11.40
2018-11-10T22:56:21.876Z,11.10
2018-11-10T22:58:49.537Z,11.40
2018-11-10T23:01:17.185Z,11.43
2018-11-10T23:03:44.984Z,11.30
2018-11-10T23:06:12.475Z,10.53
2018-11-10T23:08:40.082Z,10.27
2018-11-10T23:11:07.824Z,11.47
2018-11-10T23:13:35.647Z,9.37
2018-11-10T23:16:03.379Z,9.13
2018-11-10T23:18:31.019Z,11.00
2018-11-10T23:20:58.642Z,11.33
2018-11-10T23:23:26.431Z,12.03
2018-11-10T23:25:53.982Z,11.77
2018-11-10T23:28:21.641Z,12.27
2018-11-10T23:30:49.212Z,11.87
2018-11-10T23:33:16.841Z,12.13
2018-11-10T23:35:44.494Z,11.43
2018-11-10T23:38:12.157Z,11.00
2018-11-10T23:40:39.731Z,11.37
2018-11-10T23:43:07.290Z,11.20
2018-11-10T23:45:34.965Z,10.33
2018-11-10T23:48:02.697Z,11.57
2018-11-10T23:50:30.315Z,11.10
2018-11-10T23:52:57.936Z,11.73
2018-11-10T23:55:25.646Z,12.03
2018-11-10T23:57:53.218Z,12.03
